createdAt,value
2023-04-07T00:01:53.052Z,0.70
2023-04-07T00:04:20.594Z,0.75
2023-04-07T00:06:47.949Z,0.70
2023-04-07T00:09:14.999Z,0.70
2023-04-07T00:11:42.198Z,0.80
2023-04-07T00:14:11.645Z,1.10
2023-04-07T00:16:38.832Z,0.70
2023-04-07T00:19:06.471Z,0.90
2023-04-07T00:21:33.584Z,0.90
2023-04-07T00:24:00.813Z,0.82
2023-04-07T00:26:31.597Z,0.80
2023-04-07T00:28:59.699Z,0.80
2023-04-07T00:31:27.210Z,0.90
2023-04-07T00:33:55.975Z,1.05
2023-04-07T00:36:23.648Z,0.80
2023-04-07T00:38:50.840Z,0.88
2023-04-07T00:41:18.024Z,0.98
2023-04-07T00:43:46.094Z,0.82
2023-04-07T00:46:13.357Z,1.23
2023-04-07T00:48:40.646Z,0.80
2023-04-07T00:51:08.235Z,0.85
2023-04-07T00:53:35.555Z,0.80
2023-04-07T00:56:03.036Z,1.02
2023-04-07T00:58:30.264Z,0.73
2023-04-07T01:01:17.103Z,0.90
2023-04-07T01:03:55.460Z,0.70
2023-04-07T01:06:27.506Z,0.80
2023-04-07T01:09:03.836Z,0.63
2023-04-07T01:12:05.458Z,0.82
2023-04-07T01:14:41.234Z,0.90
2023-04-07T01:17:27.554Z,1.02
2023-04-07T01:19:54.635Z,1.03
2023-04-07T01:22:28.946Z,0.65
2023-04-07T01:25:33.252Z,1.25
2023-04-07T01:28:56.392Z,1.05
2023-04-07T01:31:25.597Z,0.70
2023-04-07T01:33:57.813Z,0.98
2023-04-07T01:36:28.551Z,0.80
2023-04-07T01:38:56.423Z,0.75
2023-04-07T01:41:25.982Z,0.90
2023-04-07T01:43:55.529Z,0.95
2023-04-07T01:46:24.945Z,1.15
2023-04-07T01:48:52.851Z,0.98
2023-04-07T01:51:23.068Z,0.77
2023-04-07T01:53:50.635Z,0.60
2023-04-07T01:56:18.104Z,0.70
2023-04-07T01:58:49.556Z,0.90
2023-04-07T02:01:19.599Z,1.33
2023-04-07T02:03:55.806Z,1.00
2023-04-07T02:06:28.566Z,0.82
2023-04-07T02:09:02.943Z,0.70
2023-04-07T02:11:33.201Z,0.87
2023-04-07T02:14:05.578Z,0.73
2023-04-07T02:16:41.989Z,0.70
2023-04-07T02:19:09.694Z,0.80
2023-04-07T02:21:37.370Z,0.88
2023-04-07T02:24:08.125Z,1.23
2023-04-07T02:26:36.525Z,0.70
2023-04-07T02:29:07.045Z,1.08
2023-04-07T02:31:34.290Z,1.15
2023-04-07T02:34:01.529Z,1.00
2023-04-07T02:36:28.661Z,0.70
2023-04-07T02:38:56.195Z,0.93
2023-04-07T02:41:23.493Z,1.00
2023-04-07T02:43:50.713Z,0.70
2023-04-07T02:46:17.873Z,0.70
2023-04-07T02:48:45.121Z,1.00
2023-04-07T02:51:12.288Z,0.90
2023-04-07T02:53:39.415Z,0.80
2023-04-07T02:56:06.741Z,1.63
2023-04-07T02:58:33.905Z,0.73
2023-04-07T03:01:01.102Z,1.00
2023-04-07T03:03:31.669Z,0.90
2023-04-07T03:06:10.899Z,0.70
2023-04-07T03:08:47.378Z,1.20
2023-04-07T03:11:14.565Z,0.80
2023-04-07T03:13:41.954Z,0.70
2023-04-07T03:16:09.117Z,0.73
2023-04-07T03:18:45.645Z,0.70
2023-04-07T03:21:13.647Z,0.80
2023-04-07T03:23:41.192Z,1.10
2023-04-07T03:26:08.345Z,0.80
2023-04-07T03:28:37.992Z,0.80
2023-04-07T03:31:05.374Z,0.70
2023-04-07T03:33:32.707Z,1.03
2023-04-07T03:36:00.016Z,0.83
2023-04-07T03:38:27.158Z,0.90
2023-04-07T03:40:58.266Z,0.95
2023-04-07T03:43:25.556Z,0.90
2023-04-07T03:45:56.400Z,0.90
2023-04-07T03:48:25.332Z,1.10
2023-04-07T03:51:07.062Z,0.70
2023-04-07T03:53:35.170Z,0.90
2023-04-07T03:56:13.046Z,1.17
2023-04-07T03:58:46.900Z,0.90
2023-04-07T04:01:19.182Z,0.77
2023-04-07T04:03:50.219Z,0.80
2023-04-07T04:06:24.427Z,1.10
2023-04-07T04:08:54.123Z,0.90
2023-04-07T04:11:22.657Z,0.80
2023-04-07T04:13:57.685Z,1.10
2023-04-07T04:16:24.986Z,0.90
2023-04-07T04:18:55.031Z,0.80
2023-04-07T04:21:22.686Z,0.80
2023-04-07T04:23:49.850Z,0.80
2023-04-07T04:26:17.902Z,0.70
2023-04-07T04:28:45.967Z,0.60
2023-04-07T04:31:14.218Z,0.90
2023-04-07T04:33:44.147Z,0.80
2023-04-07T04:36:11.842Z,0.70
2023-04-07T04:38:39.304Z,0.90
2023-04-07T04:41:21.107Z,0.60
2023-04-07T04:43:50.455Z,0.80
2023-04-07T04:46:22.130Z,0.90
2023-04-07T04:48:51.697Z,0.83
2023-04-07T04:51:21.129Z,0.70
2023-04-07T04:53:54.452Z,0.50
2023-04-07T04:56:24.046Z,0.77
2023-04-07T04:58:51.944Z,0.80
2023-04-07T05:01:28.371Z,0.60
2023-04-07T05:04:03.685Z,0.70
2023-04-07T05:06:31.425Z,0.60
2023-04-07T05:09:03.593Z,0.80
2023-04-07T05:11:40.840Z,0.60
2023-04-07T05:14:08.016Z,0.90
2023-04-07T05:16:36.852Z,0.80
2023-04-07T05:19:05.954Z,0.60
2023-04-07T05:21:33.200Z,0.83
2023-04-07T05:24:03.739Z,0.90
2023-04-07T05:26:35.476Z,1.30
2023-04-07T05:29:04.929Z,1.47
2023-04-07T05:31:32.096Z,0.93
2023-04-07T05:34:00.649Z,0.93
2023-04-07T05:36:34.167Z,0.77
2023-04-07T05:39:01.647Z,0.90
2023-04-07T05:41:29.028Z,0.90
2023-04-07T05:43:56.512Z,0.90
2023-04-07T05:46:23.694Z,1.10
2023-04-07T05:48:55.894Z,0.70
2023-04-07T05:51:23.966Z,0.80
2023-04-07T05:53:53.606Z,0.80
2023-04-07T05:56:23.457Z,0.90
2023-04-07T05:58:50.697Z,1.40
2023-04-07T06:01:19.451Z,1.00
2023-04-07T06:03:48.191Z,0.80
2023-04-07T06:06:24.553Z,0.83
2023-04-07T06:08:51.724Z,0.70
2023-04-07T06:11:18.871Z,0.90
2023-04-07T06:13:46.737Z,1.53
2023-04-07T06:16:14.282Z,1.07
2023-04-07T06:18:42.226Z,0.80
2023-04-07T06:21:09.476Z,1.13
2023-04-07T06:23:36.757Z,0.90
2023-04-07T06:26:10.402Z,0.77
2023-04-07T06:28:37.694Z,1.13
2023-04-07T06:31:05.288Z,0.90
2023-04-07T06:33:32.502Z,1.20
2023-04-07T06:35:59.619Z,1.10
2023-04-07T06:38:26.921Z,0.80
2023-04-07T06:40:54.222Z,1.10
2023-04-07T06:43:21.472Z,0.87
2023-04-07T06:45:56.874Z,0.90
2023-04-07T06:48:24.005Z,1.00
2023-04-07T06:50:51.863Z,0.90
2023-04-07T06:53:19.443Z,0.97
2023-04-07T06:55:46.560Z,1.30
2023-04-07T06:58:13.703Z,0.77
2023-04-07T07:00:40.780Z,1.17
2023-04-07T07:03:08.107Z,1.00
2023-04-07T07:05:35.549Z,1.33
2023-04-07T07:08:02.645Z,1.20
2023-04-07T07:10:29.784Z,0.98
2023-04-07T07:12:57.055Z,0.82
2023-04-07T07:15:24.261Z,0.90
2023-04-07T07:17:51.440Z,1.25
2023-04-07T07:20:18.700Z,0.80
2023-04-07T07:22:46.005Z,0.90
2023-04-07T07:25:13.437Z,1.00
2023-04-07T07:27:40.613Z,1.08
2023-04-07T07:30:08.570Z,0.82
2023-04-07T07:32:36.018Z,0.90
2023-04-07T07:35:03.147Z,0.90
2023-04-07T07:37:30.710Z,1.10
2023-04-07T07:39:57.923Z,0.80
2023-04-07T07:42:25.221Z,1.35
2023-04-07T07:44:52.433Z,0.93
2023-04-07T07:47:19.633Z,1.00
2023-04-07T07:49:46.744Z,0.90
2023-04-07T07:52:14.065Z,0.85
2023-04-07T07:54:41.445Z,1.13
2023-04-07T07:57:08.677Z,1.00
2023-04-07T07:59:35.864Z,1.13
2023-04-07T08:02:03.039Z,1.00
2023-04-07T08:04:30.454Z,1.00
2023-04-07T08:06:58.337Z,0.85
2023-04-07T08:09:26.245Z,1.67
2023-04-07T08:11:53.439Z,1.25
2023-04-07T08:14:20.814Z,1.23
2023-04-07T08:16:48.245Z,1.20
2023-04-07T08:19:15.745Z,1.10
2023-04-07T08:21:43.207Z,0.70
2023-04-07T08:24:11.011Z,0.80
2023-04-07T08:26:38.365Z,1.10
2023-04-07T08:29:05.537Z,1.00
2023-04-07T08:31:32.811Z,1.00
2023-04-07T08:34:00.007Z,0.93
2023-04-07T08:36:28.191Z,1.30
2023-04-07T08:38:55.650Z,1.15
2023-04-07T08:41:37.841Z,0.93
2023-04-07T08:44:06.955Z,0.90
2023-04-07T08:46:34.999Z,1.15
2023-04-07T08:49:03.649Z,1.45
2023-04-07T08:51:32.556Z,1.42
2023-04-07T08:54:16.600Z,1.13
2023-04-07T08:56:43.989Z,1.00
2023-04-07T08:59:13.860Z,1.45
2023-04-07T09:01:42.437Z,1.35
2023-04-07T09:04:10.906Z,0.82
2023-04-07T09:06:38.753Z,0.93
2023-04-07T09:09:06.485Z,1.42
2023-04-07T09:11:38.973Z,1.00
2023-04-07T09:14:06.172Z,0.90
2023-04-07T09:16:33.721Z,0.90
2023-04-07T09:19:01.113Z,0.85
2023-04-07T09:21:48.742Z,1.00
2023-04-07T09:24:29.783Z,1.27
2023-04-07T09:27:18.088Z,0.90
2023-04-07T09:29:47.548Z,0.85
2023-04-07T09:32:36.790Z,1.27
2023-04-07T09:35:04.159Z,1.10
2023-04-07T09:37:31.257Z,1.20
2023-04-07T09:39:58.449Z,1.20
2023-04-07T09:42:26.993Z,1.00
2023-04-07T09:44:54.439Z,1.13
2023-04-07T09:47:29.997Z,0.85
2023-04-07T09:49:57.590Z,1.25
2023-04-07T09:52:47.445Z,1.30
2023-04-07T09:55:16.126Z,1.23
2023-04-07T09:57:45.487Z,0.90
2023-04-07T10:00:13.376Z,0.95
2023-04-07T10:02:40.894Z,1.70
2023-04-07T10:05:08.841Z,1.20
2023-04-07T10:07:36.268Z,1.10
2023-04-07T10:10:04.805Z,1.85
2023-04-07T10:12:34.802Z,0.90
2023-04-07T10:15:02.723Z,1.30
2023-04-07T10:17:31.886Z,1.10
2023-04-07T10:20:00.006Z,1.13
2023-04-07T10:22:29.213Z,0.50
2023-04-07T10:25:17.016Z,0.98
2023-04-07T10:27:51.738Z,1.20
2023-04-07T10:30:24.022Z,1.02
2023-04-07T10:32:54.426Z,0.90
2023-04-07T10:35:23.167Z,0.90
2023-04-07T10:38:10.673Z,1.08
2023-04-07T10:40:38.599Z,0.93
2023-04-07T10:43:11.487Z,1.40
2023-04-07T10:45:52.415Z,0.80
2023-04-07T10:48:20.364Z,0.80
2023-04-07T10:51:08.515Z,0.70
2023-04-07T10:53:36.253Z,0.98
2023-04-07T10:56:03.508Z,0.63
2023-04-07T10:58:34.537Z,0.50
2023-04-07T11:01:01.686Z,0.98
2023-04-07T11:03:30.892Z,1.20
2023-04-07T11:06:04.832Z,0.88
2023-04-07T11:08:43.365Z,0.82
2023-04-07T11:11:13.623Z,1.20
2023-04-07T11:13:51.741Z,1.10
2023-04-07T11:16:20.916Z,1.27
2023-04-07T11:18:48.465Z,1.88
2023-04-07T11:21:19.686Z,1.23
2023-04-07T11:23:48.685Z,1.50
2023-04-07T11:26:16.523Z,1.50
2023-04-07T11:28:54.767Z,1.77
2023-04-07T11:31:26.936Z,1.23
2023-04-07T11:34:02.655Z,1.80
2023-04-07T11:36:35.530Z,1.50
2023-04-07T11:39:03.809Z,0.95
2023-04-07T11:41:33.492Z,1.15
2023-04-07T11:44:09.391Z,1.00
2023-04-07T11:46:37.451Z,0.90
2023-04-07T11:49:15.687Z,1.33
2023-04-07T11:51:45.080Z,1.00
2023-04-07T11:54:12.536Z,0.80
2023-04-07T11:56:47.799Z,0.85
2023-04-07T11:59:25.421Z,1.00
2023-04-07T12:01:55.442Z,0.75
2023-04-07T12:04:23.458Z,0.77
2023-04-07T12:06:51.055Z,1.70
2023-04-07T12:09:32.394Z,0.70
2023-04-07T12:11:59.743Z,0.90
2023-04-07T12:14:27.988Z,0.70
2023-04-07T12:16:57.772Z,0.82
2023-04-07T12:19:30.144Z,0.80
2023-04-07T12:21:57.489Z,1.20
2023-04-07T12:24:24.940Z,0.70
2023-04-07T12:26:52.182Z,0.98
2023-04-07T12:29:20.395Z,0.80
2023-04-07T12:31:50.640Z,0.80
2023-04-07T12:34:18.592Z,0.80
2023-04-07T12:36:45.695Z,0.90
2023-04-07T12:39:13.090Z,1.10
2023-04-07T12:41:40.361Z,1.23
2023-04-07T12:44:07.894Z,1.30
2023-04-07T12:46:35.131Z,0.88
2023-04-07T12:49:02.891Z,0.60
2023-04-07T12:51:31.558Z,0.73
2023-04-07T12:53:58.700Z,0.85
2023-04-07T12:56:25.735Z,0.90
2023-04-07T12:58:53.554Z,1.00
2023-04-07T13:01:21.381Z,1.58
2023-04-07T13:03:48.737Z,1.10
2023-04-07T13:06:17.543Z,1.00
2023-04-07T13:08:44.671Z,1.83
2023-04-07T13:11:11.760Z,1.20
2023-04-07T13:13:38.834Z,2.47
2023-04-07T13:16:05.967Z,2.20
2023-04-07T13:18:33.112Z,1.23
2023-04-07T13:21:31.739Z,1.30
2023-04-07T13:23:48.713Z,1.20
2023-04-07T13:26:15.760Z,1.20
2023-04-07T13:28:46.011Z,1.00
2023-04-07T13:31:16.205Z,1.55
2023-04-07T13:33:43.664Z,1.55
2023-04-07T13:36:11.049Z,1.25
2023-04-07T13:38:38.123Z,2.40
2023-04-07T13:41:05.247Z,1.73
2023-04-07T13:43:32.437Z,1.30
2023-04-07T13:45:59.615Z,1.58
2023-04-07T13:48:26.805Z,1.58
2023-04-07T13:50:53.983Z,1.48
2023-04-07T13:53:21.740Z,2.00
2023-04-07T13:55:49.014Z,3.03
2023-04-07T13:58:17.512Z,3.17
2023-04-07T14:00:44.608Z,2.90
2023-04-07T14:03:11.949Z,2.97
2023-04-07T14:05:39.148Z,2.90
2023-04-07T14:08:06.295Z,3.60
2023-04-07T14:10:34.039Z,3.25
2023-04-07T14:13:01.767Z,3.35
2023-04-07T14:15:28.840Z,2.97
2023-04-07T14:17:56.029Z,3.45
2023-04-07T14:20:23.830Z,2.53
2023-04-07T14:22:52.274Z,3.25
2023-04-07T14:25:19.509Z,2.83
2023-04-07T14:27:46.658Z,4.47
2023-04-07T14:30:13.904Z,3.35
2023-04-07T14:32:41.093Z,6.32
2023-04-07T14:35:08.844Z,3.83
2023-04-07T14:37:36.269Z,5.60
2023-04-07T14:40:05.175Z,4.93
2023-04-07T14:42:33.615Z,3.08
2023-04-07T14:45:01.973Z,4.57
2023-04-07T14:47:29.359Z,4.13
2023-04-07T14:49:56.584Z,3.70
2023-04-07T14:52:23.813Z,4.50
2023-04-07T14:54:51.142Z,2.92
2023-04-07T14:57:18.207Z,6.95
2023-04-07T14:59:45.604Z,5.03
2023-04-07T15:02:13.041Z,9.32
2023-04-07T15:04:40.510Z,3.72
2023-04-07T15:07:07.766Z,4.53
2023-04-07T15:09:34.862Z,4.47
2023-04-07T15:12:02.281Z,7.75
2023-04-07T15:14:29.814Z,6.43
2023-04-07T15:16:56.909Z,4.70
2023-04-07T15:19:24.018Z,3.63
2023-04-07T15:21:51.078Z,4.50
2023-04-07T15:24:19.714Z,4.32
2023-04-07T15:26:46.855Z,3.97
2023-04-07T15:29:14.063Z,5.25
2023-04-07T15:31:41.282Z,8.25
2023-04-07T15:34:08.429Z,5.90
2023-04-07T15:36:35.732Z,6.47
2023-04-07T15:39:04.952Z,3.95
2023-04-07T15:41:32.428Z,6.68
2023-04-07T15:44:00.730Z,6.65
2023-04-07T15:46:28.567Z,3.63
2023-04-07T15:48:56.017Z,7.57
2023-04-07T15:51:23.576Z,6.20
2023-04-07T15:53:50.875Z,6.35
2023-04-07T15:56:18.278Z,8.45
2023-04-07T15:58:46.072Z,5.53
2023-04-07T16:01:13.415Z,5.72
2023-04-07T16:03:40.974Z,5.90
2023-04-07T16:06:08.129Z,9.10
2023-04-07T16:08:35.324Z,6.35
2023-04-07T16:11:02.372Z,9.02
2023-04-07T16:13:29.519Z,4.78
2023-04-07T16:15:59.644Z,4.70
2023-04-07T16:18:26.889Z,7.47
2023-04-07T16:20:54.072Z,5.00
2023-04-07T16:23:21.381Z,5.30
2023-04-07T16:25:48.402Z,6.30
2023-04-07T16:28:15.527Z,6.70
2023-04-07T16:30:43.125Z,7.35
2023-04-07T16:33:10.325Z,4.97
2023-04-07T16:35:37.508Z,6.05
2023-04-07T16:38:06.399Z,3.70
2023-04-07T16:40:33.766Z,4.57
2023-04-07T16:43:01.160Z,3.92
2023-04-07T16:45:28.383Z,3.97
2023-04-07T16:47:55.847Z,3.92
2023-04-07T16:50:26.865Z,6.18
2023-04-07T16:52:55.101Z,7.45
2023-04-07T16:55:22.399Z,5.55
2023-04-07T16:57:50.255Z,3.78
2023-04-07T17:00:17.411Z,5.80
2023-04-07T17:02:44.657Z,5.57
2023-04-07T17:05:11.880Z,3.50
2023-04-07T17:07:39.127Z,5.53
2023-04-07T17:10:07.679Z,4.03
2023-04-07T17:12:34.761Z,2.50
2023-04-07T17:15:02.150Z,3.88
2023-04-07T17:17:29.261Z,4.75
2023-04-07T17:19:57.799Z,5.90
2023-04-07T17:22:24.920Z,4.90
2023-04-07T17:24:52.549Z,5.93
2023-04-07T17:27:19.747Z,3.70
2023-04-07T17:29:46.831Z,5.22
2023-04-07T17:32:13.927Z,7.30
2023-04-07T17:34:41.112Z,5.40
2023-04-07T17:37:08.191Z,8.65
2023-04-07T17:39:35.537Z,8.55
2023-04-07T17:42:02.687Z,5.32
2023-04-07T17:44:31.295Z,5.13
2023-04-07T17:46:59.092Z,4.63
2023-04-07T17:49:26.786Z,3.67
2023-04-07T17:51:54.214Z,5.13
2023-04-07T17:54:21.518Z,4.25
2023-04-07T17:56:49.223Z,4.90
2023-04-07T17:59:16.382Z,3.85
2023-04-07T18:01:43.661Z,5.38
2023-04-07T18:04:11.283Z,6.18
2023-04-07T18:06:38.463Z,4.40
2023-04-07T18:09:05.880Z,7.38
2023-04-07T18:11:33.072Z,8.82
2023-04-07T18:14:00.636Z,9.48
2023-04-07T18:16:27.884Z,5.70
2023-04-07T18:18:55.419Z,5.60
2023-04-07T18:21:22.767Z,3.97
2023-04-07T18:23:50.071Z,3.25
2023-04-07T18:26:17.623Z,5.00
2023-04-07T18:28:44.775Z,7.10
2023-04-07T18:31:12.539Z,5.40
2023-04-07T18:33:39.623Z,5.40
2023-04-07T18:36:08.188Z,5.50
2023-04-07T18:38:36.661Z,4.57
2023-04-07T18:41:06.027Z,6.05
2023-04-07T18:43:33.188Z,7.47
2023-04-07T18:46:00.318Z,8.32
2023-04-07T18:48:27.872Z,6.53
2023-04-07T18:50:56.650Z,4.93
2023-04-07T18:53:25.407Z,8.82
2023-04-07T18:55:52.873Z,6.25
2023-04-07T18:58:21.011Z,9.07
2023-04-07T19:00:53.061Z,5.80
2023-04-07T19:03:22.864Z,6.20
2023-04-07T19:05:52.518Z,15.30
2023-04-07T19:08:19.970Z,9.85
2023-04-07T19:10:48.819Z,9.57
2023-04-07T19:13:19.624Z,7.00
2023-04-07T19:15:46.880Z,8.50
2023-04-07T19:18:14.068Z,8.27
2023-04-07T19:20:41.358Z,9.30
2023-04-07T19:23:08.481Z,7.07
2023-04-07T19:25:35.834Z,6.72
2023-04-07T19:28:03.375Z,8.80
2023-04-07T19:30:30.553Z,7.18
2023-04-07T19:32:57.939Z,7.80
2023-04-07T19:35:25.678Z,7.38
2023-04-07T19:37:53.763Z,6.28
2023-04-07T19:40:20.997Z,6.53
2023-04-07T19:42:48.224Z,6.53
2023-04-07T19:45:15.500Z,7.43
2023-04-07T19:47:43.661Z,5.28
2023-04-07T19:50:17.753Z,11.15
2023-04-07T19:52:45.284Z,5.88
2023-04-07T19:55:14.152Z,8.63
2023-04-07T19:57:41.505Z,7.00
2023-04-07T20:00:10.036Z,6.93
2023-04-07T20:02:48.373Z,8.00
2023-04-07T20:05:16.088Z,6.95
2023-04-07T20:07:44.262Z,8.80
2023-04-07T20:10:11.731Z,9.43
2023-04-07T20:12:39.168Z,8.50
2023-04-07T20:15:07.969Z,7.78
2023-04-07T20:17:37.048Z,7.13
2023-04-07T20:20:05.414Z,7.25
2023-04-07T20:22:36.643Z,9.43
2023-04-07T20:25:05.571Z,4.65
2023-04-07T20:27:33.826Z,6.70
2023-04-07T20:30:02.096Z,5.10
2023-04-07T20:32:29.277Z,6.68
2023-04-07T20:34:56.639Z,6.75
2023-04-07T20:37:26.062Z,8.68
2023-04-07T20:39:55.651Z,6.78
2023-04-07T20:42:22.949Z,6.70
2023-04-07T20:44:50.123Z,4.93
2023-04-07T20:47:17.990Z,4.90
2023-04-07T20:49:45.096Z,4.50
2023-04-07T20:52:15.417Z,7.07
2023-04-07T20:54:44.965Z,4.60
2023-04-07T20:57:12.226Z,6.28
2023-04-07T20:59:39.435Z,7.10
2023-04-07T21:02:07.225Z,7.05
2023-04-07T21:04:34.665Z,5.90
2023-04-07T21:07:01.844Z,4.95
2023-04-07T21:09:28.880Z,8.02
2023-04-07T21:11:56.272Z,7.80
2023-04-07T21:14:23.462Z,7.25
2023-04-07T21:16:50.592Z,8.43
2023-04-07T21:19:17.871Z,8.55
2023-04-07T21:21:45.069Z,8.10
2023-04-07T21:24:12.221Z,6.07
2023-04-07T21:26:39.608Z,5.53
2023-04-07T21:29:06.671Z,6.30
2023-04-07T21:31:33.998Z,6.25
2023-04-07T21:34:01.268Z,5.07
2023-04-07T21:36:28.753Z,6.28
2023-04-07T21:38:55.864Z,5.45
2023-04-07T21:41:23.117Z,4.85
2023-04-07T21:43:50.181Z,5.93
2023-04-07T21:46:17.705Z,8.65
2023-04-07T21:48:45.095Z,5.82
2023-04-07T21:51:12.304Z,5.22
2023-04-07T21:53:40.588Z,5.25
2023-04-07T21:56:09.379Z,7.00
2023-04-07T21:58:37.449Z,5.82
2023-04-07T22:01:05.011Z,4.90
2023-04-07T22:03:32.338Z,6.43
2023-04-07T22:06:00.505Z,10.25
2023-04-07T22:08:27.813Z,9.45
2023-04-07T22:10:55.051Z,6.45
2023-04-07T22:13:22.202Z,9.60
2023-04-07T22:15:50.349Z,8.30
2023-04-07T22:18:17.495Z,4.97
2023-04-07T22:20:45.205Z,6.20
2023-04-07T22:23:12.291Z,6.15
2023-04-07T22:25:39.481Z,6.13
2023-04-07T22:28:06.917Z,8.10
2023-04-07T22:30:34.126Z,6.22
2023-04-07T22:33:01.536Z,6.40
2023-04-07T22:35:29.116Z,4.40
2023-04-07T22:37:56.446Z,7.15
2023-04-07T22:40:23.797Z,6.10
2023-04-07T22:42:50.841Z,7.03
2023-04-07T22:45:20.106Z,8.60
2023-04-07T22:47:47.481Z,8.48
2023-04-07T22:50:14.744Z,7.82
2023-04-07T22:52:41.975Z,7.65
2023-04-07T22:55:09.646Z,5.80
2023-04-07T22:57:36.826Z,5.72
2023-04-07T23:00:04.848Z,7.22
2023-04-07T23:02:32.571Z,7.45
2023-04-07T23:04:59.938Z,8.57
2023-04-07T23:07:27.211Z,7.75
2023-04-07T23:09:54.409Z,7.32
2023-04-07T23:12:21.742Z,7.45
2023-04-07T23:14:48.901Z,5.65
2023-04-07T23:17:16.386Z,5.25
2023-04-07T23:19:43.525Z,4.28
2023-04-07T23:22:10.600Z,6.10
2023-04-07T23:24:38.649Z,5.43
2023-04-07T23:27:05.901Z,8.45
2023-04-07T23:29:32.987Z,8.45
2023-04-07T23:32:00.997Z,7.78
2023-04-07T23:34:28.206Z,8.25
2023-04-07T23:36:55.264Z,8.75
2023-04-07T23:39:22.372Z,5.93
2023-04-07T23:41:49.491Z,4.57
2023-04-07T23:44:16.696Z,5.68
2023-04-07T23:46:43.846Z,9.38
2023-04-07T23:49:11.178Z,6.78
2023-04-07T23:51:38.500Z,6.05
2023-04-07T23:54:05.591Z,7.10
2023-04-07T23:56:33.430Z,6.15
2023-04-07T23:59:00.518Z,6.30
